Time;durP1;ratioP1;P1;durP2;ratioP2;P2;SDS_P1;SDS_P2;PMS_P1;PMS_P2;Temp;Humidity;BMP_temperature;BMP_pressure;BME280_temperature;BME280_humidity;BME280_pressure;Samples;Min_cycle;Max_cycle;Signal;HPM_P1;HPM_P2
2021/04/14 00:00:45;;;;;;;11.90;11.07;;;1.40;99.90;;;;;;4992331;28;20455;-68
2021/04/14 00:03:17;;;;;;;12.97;12.00;;;1.50;99.90;;;;;;4992304;28;20453;-68
2021/04/14 00:05:43;;;;;;;14.63;12.87;;;1.50;99.90;;;;;;4992159;28;20487;-68
2021/04/14 00:08:09;;;;;;;13.03;11.90;;;1.50;99.90;;;;;;4992438;28;20454;-68
2021/04/14 00:10:37;;;;;;;13.13;12.03;;;1.50;99.90;;;;;;4992330;28;20545;-68
2021/04/14 00:13:04;;;;;;;12.03;11.23;;;1.50;99.90;;;;;;4992102;28;20451;-68
2021/04/14 00:15:35;;;;;;;15.30;14.13;;;1.60;99.90;;;;;;4992008;28;20460;-69
2021/04/14 00:18:01;;;;;;;14.93;13.60;;;1.50;99.90;;;;;;4992135;28;20670;-69
2021/04/14 00:20:27;;;;;;;14.60;13.10;;;1.50;99.90;;;;;;4992027;28;20456;-68
2021/04/14 00:22:54;;;;;;;13.47;12.33;;;1.50;99.90;;;;;;4992057;28;20455;-69
2021/04/14 00:25:23;;;;;;;14.33;13.20;;;1.50;99.90;;;;;;4991771;28;20451;-68
2021/04/14 00:27:49;;;;;;;14.80;13.70;;;1.50;99.90;;;;;;4992024;28;20467;-68
2021/04/14 00:30:17;;;;;;;14.87;13.67;;;1.50;99.90;;;;;;4991965;28;20962;-66
2021/04/14 00:32:44;;;;;;;15.57;14.40;;;1.50;99.90;;;;;;4991628;28;20450;-66
2021/04/14 00:35:11;;;;;;;15.17;13.77;;;1.50;99.90;;;;;;4991935;28;20467;-67
2021/04/14 00:37:37;;;;;;;16.83;15.23;;;1.40;99.90;;;;;;4992003;28;20451;-68
2021/04/14 00:40:06;;;;;;;13.93;12.97;;;1.50;99.90;;;;;;4991713;28;20457;-67
2021/04/14 00:42:32;;;;;;;16.00;14.80;;;1.40;99.90;;;;;;4991529;28;20454;-67
2021/04/14 00:44:58;;;;;;;15.53;14.33;;;1.40;99.90;;;;;;4991744;28;20490;-67
2021/04/14 00:47:25;;;;;;;15.30;14.00;;;1.30;99.90;;;;;;4991552;28;20850;-68
2021/04/14 00:49:53;;;;;;;15.80;14.60;;;1.40;99.90;;;;;;4991565;28;20474;-68
2021/04/14 00:52:19;;;;;;;16.53;15.03;;;1.30;99.90;;;;;;4995156;28;20517;-68
2021/04/14 00:54:45;;;;;;;16.13;14.83;;;1.30;99.90;;;;;;4995536;28;20452;-68
2021/04/14 00:57:12;;;;;;;16.37;14.93;;;1.30;99.90;;;;;;4995903;28;20461;-67
2021/04/14 00:59:38;;;;;;;18.07;16.60;;;1.30;99.90;;;;;;4995697;28;20500;-67
2021/04/14 01:02:04;;;;;;;15.90;14.60;;;1.30;99.90;;;;;;4995505;28;20941;-67
2021/04/14 01:04:32;;;;;;;16.17;14.77;;;1.20;99.90;;;;;;4995548;28;20857;-67
2021/04/14 01:06:58;;;;;;;17.33;15.70;;;1.10;99.90;;;;;;4995496;28;20503;-67
2021/04/14 01:09:24;;;;;;;15.73;14.23;;;1.10;99.90;;;;;;4975888;28;20444;-68
2021/04/14 01:11:50;;;;;;;15.23;13.97;;;1.10;99.90;;;;;;4976374;28;20451;-68
2021/04/14 01:14:17;;;;;;;16.30;15.00;;;1.00;99.90;;;;;;4975906;28;20456;-68
2021/04/14 01:16:43;;;;;;;15.27;13.97;;;1.10;99.90;;;;;;4975897;28;20455;-67
2021/04/14 01:19:10;;;;;;;16.07;15.00;;;1.10;99.90;;;;;;4975931;28;20455;-67
2021/04/14 01:21:39;;;;;;;14.40;13.43;;;1.10;99.90;;;;;;4975676;28;20476;-69
2021/04/14 01:58:28;;;;;;;17.93;16.47;;;0.70;99.90;;;;;;5094136;23;20899;-69
2021/04/14 02:00:59;;;;;;;17.30;15.70;;;0.70;99.90;;;;;;4986513;28;20466;-69
2021/04/14 02:03:27;;;;;;;16.57;15.20;;;0.70;99.90;;;;;;4984776;28;20468;-70
2021/04/14 02:05:54;;;;;;;15.20;13.70;;;0.70;99.90;;;;;;4987038;28;20541;-69
2021/04/14 02:08:20;;;;;;;15.40;14.07;;;0.70;99.90;;;;;;4981597;28;20954;-70
2021/04/14 02:10:47;;;;;;;15.47;14.20;;;0.70;99.90;;;;;;4983012;28;20452;-69
2021/04/14 02:13:15;;;;;;;15.63;14.43;;;0.70;99.90;;;;;;4983424;28;20805;-70
2021/04/14 02:15:43;;;;;;;15.83;14.73;;;0.60;99.90;;;;;;4983656;28;20467;-70
2021/04/14 02:18:09;;;;;;;16.07;14.90;;;0.60;99.90;;;;;;4983016;28;20444;-69
2021/04/14 02:20:35;;;;;;;14.67;13.67;;;0.60;99.90;;;;;;4981572;28;20458;-69
2021/04/14 02:23:13;;;;;;;16.43;15.23;;;0.60;99.90;;;;;;4984213;28;20739;-68
2021/04/14 02:25:39;;;;;;;15.47;14.33;;;0.60;99.90;;;;;;4993375;28;20465;-69
2021/04/14 02:28:06;;;;;;;16.60;15.17;;;0.50;99.90;;;;;;4989716;28;20586;-69
2021/04/14 02:30:32;;;;;;;16.00;14.70;;;0.50;99.90;;;;;;4982007;28;20806;-69
2021/04/14 02:32:59;;;;;;;16.33;15.30;;;0.50;99.90;;;;;;4983201;28;20510;-70
2021/04/14 02:35:26;;;;;;;16.03;14.83;;;0.50;99.90;;;;;;4982039;28;20786;-69
2021/04/14 02:37:53;;;;;;;15.87;14.87;;;0.50;99.90;;;;;;4981703;28;20447;-70
2021/04/14 02:40:20;;;;;;;17.07;15.50;;;0.50;99.90;;;;;;4983084;28;20449;-70
2021/04/14 02:42:46;;;;;;;17.93;16.43;;;0.40;99.90;;;;;;4981806;28;20448;-70
2021/04/14 02:45:14;;;;;;;16.83;15.43;;;0.40;99.90;;;;;;4981906;28;20444;-70
2021/04/14 02:47:40;;;;;;;17.87;16.50;;;0.40;99.90;;;;;;4983032;28;20561;-70
2021/04/14 02:50:10;;;;;;;16.73;15.43;;;0.40;99.90;;;;;;4981584;28;20463;-70
2021/04/14 02:52:36;;;;;;;17.13;15.50;;;0.40;99.90;;;;;;4981442;28;20479;-68
2021/04/14 02:55:03;;;;;;;18.03;16.67;;;0.30;99.90;;;;;;4980107;28;20497;-69
2021/04/14 02:57:30;;;;;;;17.83;16.17;;;0.30;99.90;;;;;;4962465;28;20850;-70
2021/04/14 02:59:56;;;;;;;18.17;16.87;;;0.30;99.90;;;;;;4961798;28;20511;-69
2021/04/14 03:02:22;;;;;;;18.80;17.00;;;0.30;99.90;;;;;;4963380;28;20503;-69
2021/04/14 03:04:49;;;;;;;18.50;17.10;;;0.30;99.90;;;;;;4966138;28;20464;-68
2021/04/14 03:07:16;;;;;;;18.10;16.50;;;0.20;99.90;;;;;;4964872;28;20748;-70
2021/04/14 03:09:42;;;;;;;18.63;17.13;;;0.30;99.90;;;;;;4963195;28;20444;-70
2021/04/14 03:12:09;;;;;;;19.50;18.00;;;0.30;99.90;;;;;;4962263;28;20990;-70
2021/04/14 03:14:36;;;;;;;18.27;17.07;;;0.30;99.90;;;;;;4956586;28;20463;-70
2021/04/14 03:17:02;;;;;;;17.50;16.40;;;0.20;99.90;;;;;;4953942;29;20456;-70
2021/04/14 03:19:28;;;;;;;16.93;15.63;;;0.30;99.90;;;;;;4953785;29;20452;-69
2021/04/14 03:21:55;;;;;;;18.53;17.23;;;0.30;99.90;;;;;;4953727;29;21033;-70
2021/04/14 03:24:22;;;;;;;18.50;16.83;;;0.20;99.90;;;;;;4953765;29;20465;-68
2021/04/14 03:26:48;;;;;;;18.43;17.03;;;0.20;99.90;;;;;;4953487;29;20495;-69
2021/04/14 03:29:14;;;;;;;18.17;16.60;;;0.10;99.90;;;;;;4953511;29;20460;-68
2021/04/14 03:31:41;;;;;;;20.00;18.33;;;0.10;99.90;;;;;;4953848;29;20448;-69
2021/04/14 03:34:07;;;;;;;18.57;17.37;;;0.10;99.90;;;;;;4953663;29;20472;-69
2021/04/14 03:36:33;;;;;;;17.87;16.47;;;0.10;99.90;;;;;;4953327;29;20551;-69
2021/04/14 03:38:59;;;;;;;18.60;16.90;;;0.10;99.90;;;;;;4953366;29;20459;-68
2021/04/14 03:41:27;;;;;;;18.37;17.07;;;0.10;99.90;;;;;;4953467;29;20453;-68
2021/04/14 03:43:54;;;;;;;20.20;18.60;;;0.10;99.90;;;;;;4953603;29;20452;-68
2021/04/14 03:46:21;;;;;;;20.30;18.47;;;0.10;99.90;;;;;;4953505;29;20572;-69
2021/04/14 03:48:48;;;;;;;19.77;18.27;;;0.10;99.90;;;;;;4953393;29;20565;-69
2021/04/14 03:51:14;;;;;;;23.57;17.73;;;0.10;99.90;;;;;;4953616;29;20461;-69
2021/04/14 03:53:42;;;;;;;18.70;17.20;;;0.10;99.90;;;;;;4953425;29;20819;-68
2021/04/14 03:56:11;;;;;;;17.47;16.07;;;0.10;99.90;;;;;;4953183;28;20559;-69
2021/04/14 03:58:40;;;;;;;18.97;17.33;;;0.10;99.90;;;;;;4953255;29;20490;-69
2021/04/14 04:01:08;;;;;;;18.50;17.03;;;0.00;99.90;;;;;;4952887;29;20832;-69
2021/04/14 04:03:35;;;;;;;18.57;17.13;;;0.00;99.90;;;;;;4952880;29;20459;-70
2021/04/14 04:06:02;;;;;;;15.97;14.87;;;0.10;99.90;;;;;;4952832;29;20489;-70
2021/04/14 04:08:28;;;;;;;17.53;15.93;;;0.10;99.90;;;;;;4952777;29;20487;-70
2021/04/14 04:10:54;;;;;;;19.07;17.00;;;0.10;99.90;;;;;;4952807;29;20453;-69
2021/04/14 04:13:21;;;;;;;18.40;16.00;;;0.10;99.90;;;;;;4952822;29;20456;-69
2021/04/14 04:15:48;;;;;;;16.50;14.93;;;0.00;99.90;;;;;;4952749;29;20457;-70
2021/04/14 04:18:14;;;;;;;17.43;15.30;;;0.10;99.90;;;;;;4952655;29;20644;-69
2021/04/14 04:20:41;;;;;;;19.10;17.60;;;0.10;99.90;;;;;;4952824;29;20455;-69
2021/04/14 04:23:09;;;;;;;18.00;16.70;;;0.10;99.90;;;;;;4952822;29;20456;-68
2021/04/14 04:25:36;;;;;;;18.13;16.80;;;0.10;99.90;;;;;;4952204;28;20462;-69
2021/04/14 04:28:03;;;;;;;17.30;15.80;;;0.10;99.90;;;;;;4952667;29;20726;-69
2021/04/14 04:30:30;;;;;;;18.40;16.83;;;0.10;99.90;;;;;;4952505;29;20457;-68
2021/04/14 04:32:58;;;;;;;17.43;16.10;;;0.10;99.90;;;;;;4952927;29;20460;-68
2021/04/14 04:35:26;;;;;;;17.13;15.73;;;0.10;99.90;;;;;;4952893;29;20558;-69
2021/04/14 04:37:52;;;;;;;17.67;16.37;;;0.10;99.90;;;;;;4952428;29;20916;-68
2021/04/14 04:40:19;;;;;;;18.47;16.87;;;0.10;99.90;;;;;;4952738;29;20515;-69
2021/04/14 04:42:46;;;;;;;16.27;14.93;;;0.10;99.90;;;;;;4952453;29;20453;-68
2021/04/14 04:45:13;;;;;;;18.03;16.63;;;0.10;99.90;;;;;;4952359;29;20969;-68
2021/04/14 04:47:39;;;;;;;17.20;15.87;;;0.10;99.90;;;;;;4952331;29;21010;-68
2021/04/14 04:50:09;;;;;;;20.53;18.70;;;0.20;99.90;;;;;;4952617;29;20484;-69
2021/04/14 04:52:35;;;;;;;18.20;16.90;;;0.20;99.90;;;;;;4952662;29;20503;-67
2021/04/14 04:55:01;;;;;;;17.50;16.17;;;0.20;99.90;;;;;;4952204;28;20464;-68
2021/04/14 04:57:27;;;;;;;17.40;16.00;;;0.20;99.90;;;;;;4952350;29;20499;-68
2021/04/14 04:59:54;;;;;;;22.70;17.87;;;0.20;99.90;;;;;;4953044;29;20467;-68
2021/04/14 05:02:20;;;;;;;16.50;15.03;;;0.20;99.90;;;;;;4952375;29;21019;-68
2021/04/14 05:04:46;;;;;;;16.93;15.43;;;0.20;99.90;;;;;;4952154;29;20464;-68
2021/04/14 05:07:13;;;;;;;18.27;16.77;;;0.30;99.90;;;;;;4952362;29;20516;-68
2021/04/14 05:09:39;;;;;;;18.70;17.20;;;0.30;99.90;;;;;;4952493;29;20507;-69
2021/04/14 05:12:07;;;;;;;17.37;15.87;;;0.40;99.90;;;;;;4952211;29;20947;-69
2021/04/14 05:14:33;;;;;;;17.03;15.93;;;0.40;99.90;;;;;;4952384;29;20947;-70
2021/04/14 05:16:59;;;;;;;16.23;15.13;;;0.40;99.90;;;;;;4952454;29;20499;-69
2021/04/14 05:19:26;;;;;;;18.73;17.17;;;0.40;99.90;;;;;;4952244;29;20978;-70
2021/04/14 05:21:52;;;;;;;18.70;17.10;;;0.50;99.90;;;;;;4955418;28;20507;-68
2021/04/14 05:24:19;;;;;;;18.10;16.60;;;0.50;99.90;;;;;;4959848;28;20876;-68
2021/04/14 05:26:45;;;;;;;17.93;16.30;;;0.60;99.90;;;;;;4961545;28;20724;-69
2021/04/14 05:29:11;;;;;;;18.67;16.57;;;0.60;99.90;;;;;;4960265;28;20954;-68
2021/04/14 05:31:39;;;;;;;19.50;17.57;;;0.80;99.90;;;;;;4960296;28;20461;-68
2021/04/14 05:34:07;;;;;;;17.90;16.23;;;1.20;99.90;;;;;;4961650;28;20448;-68
2021/04/14 05:36:33;;;;;;;19.97;18.23;;;1.70;99.90;;;;;;4960911;28;20451;-69
2021/04/14 05:38:59;;;;;;;19.27;17.27;;;2.20;99.90;;;;;;4963169;28;20445;-68
2021/04/14 05:41:26;;;;;;;16.00;14.57;;;2.60;99.90;;;;;;4964984;28;20480;-69
2021/04/14 05:43:53;;;;;;;17.20;15.97;;;3.10;99.90;;;;;;4964260;28;20453;-69
2021/04/14 05:46:21;;;;;;;16.00;14.90;;;3.40;99.90;;;;;;4962905;28;20939;-71
2021/04/14 05:48:50;;;;;;;15.77;14.57;;;3.80;99.90;;;;;;4964669;28;20846;-68
2021/04/14 05:51:20;;;;;;;14.17;13.33;;;4.10;99.90;;;;;;4964054;28;20452;-69
2021/04/14 05:53:47;;;;;;;15.53;14.30;;;4.50;99.90;;;;;;4964699;28;21063;-69
2021/04/14 05:56:14;;;;;;;16.17;14.87;;;5.00;99.90;;;;;;4961910;28;20989;-67
2021/04/14 05:58:42;;;;;;;17.13;15.93;;;5.60;99.90;;;;;;4959685;28;20480;-68
2021/04/14 06:01:11;;;;;;;15.23;14.20;;;6.10;99.90;;;;;;4964366;28;20456;-68
2021/04/14 06:03:37;;;;;;;15.63;14.43;;;6.60;99.10;;;;;;4964364;28;20461;-69
2021/04/14 06:06:04;;;;;;;16.27;15.17;;;6.80;97.60;;;;;;4962439;28;20450;-69
2021/04/14 06:08:31;;;;;;;22.17;18.30;;;7.10;97.20;;;;;;4964094;28;20460;-69
2021/04/14 06:10:58;;;;;;;17.43;16.23;;;7.50;96.50;;;;;;4964037;28;20460;-69
2021/04/14 06:13:25;;;;;;;17.27;15.97;;;7.50;96.30;;;;;;4962658;28;20463;-68
2021/04/14 06:15:52;;;;;;;16.63;15.53;;;7.50;95.60;;;;;;4963708;28;20447;-69
2021/04/14 06:18:18;;;;;;;17.33;16.07;;;7.70;95.70;;;;;;4964238;28;20801;-70
2021/04/14 06:20:44;;;;;;;17.63;15.83;;;8.00;95.30;;;;;;4962229;28;20866;-67
2021/04/14 06:23:14;;;;;;;18.37;16.77;;;7.90;94.70;;;;;;4963481;28;20449;-69
2021/04/14 06:25:42;;;;;;;19.17;17.50;;;7.90;94.60;;;;;;4954999;29;20463;-69
2021/04/14 06:28:09;;;;;;;19.03;17.50;;;8.30;94.20;;;;;;4955005;29;20499;-69
2021/04/14 06:30:36;;;;;;;19.10;17.27;;;8.80;93.40;;;;;;4954503;29;20459;-69
2021/04/14 06:33:05;;;;;;;18.53;16.73;;;9.10;92.80;;;;;;4954487;29;20452;-72
2021/04/14 06:35:32;;;;;;;18.20;16.80;;;9.70;91.50;;;;;;4955772;28;20461;-73
2021/04/14 06:37:59;;;;;;;17.53;16.33;;;9.90;90.30;;;;;;4962052;28;20477;-73
2021/04/14 06:43:17;;;;;;;18.87;17.20;;;9.90;90.20;;;;;;4951753;29;20437;-72
2021/04/14 06:45:48;;;;;;;19.77;18.07;;;10.00;87.80;;;;;;4954367;29;20474;-73
2021/04/14 06:48:33;;;;;;;19.40;16.87;;;9.90;88.30;;;;;;4953482;28;20532;-73
2021/04/14 06:51:03;;;;;;;18.93;17.47;;;9.90;87.20;;;;;;4954057;29;20458;-73
2021/04/14 06:53:41;;;;;;;18.33;16.73;;;10.00;86.30;;;;;;4954189;29;20454;-73
2021/04/14 06:56:14;;;;;;;17.20;15.80;;;9.50;87.50;;;;;;4954095;28;20840;-73
2021/04/14 06:58:44;;;;;;;17.50;16.30;;;9.20;88.80;;;;;;4953662;29;21045;-73
2021/04/14 07:01:13;;;;;;;17.17;15.97;;;8.70;89.10;;;;;;4953689;29;20448;-73
2021/04/14 07:03:50;;;;;;;17.60;16.40;;;8.70;90.80;;;;;;4953384;29;20975;-73
2021/04/14 07:06:20;;;;;;;15.63;14.77;;;9.10;90.40;;;;;;4953272;29;20488;-73
2021/04/14 07:08:57;;;;;;;18.30;16.90;;;9.20;89.80;;;;;;4953544;29;21016;-73
2021/04/14 07:11:27;;;;;;;16.77;14.40;;;9.00;90.10;;;;;;4953510;29;20453;-73
2021/04/14 07:13:53;;;;;;;15.97;14.57;;;9.10;89.80;;;;;;4953500;29;20460;-72
2021/04/14 07:16:41;;;;;;;18.07;16.30;;;9.20;90.10;;;;;;4953280;29;20459;-72
2021/04/14 07:19:25;;;;;;;16.93;15.83;;;9.20;89.70;;;;;;4953428;29;20506;-74
2021/04/14 07:21:56;;;;;;;16.50;15.23;;;9.00;90.40;;;;;;4954146;29;20888;-74
2021/04/14 07:24:28;;;;;;;17.70;16.27;;;8.70;90.90;;;;;;4953987;29;20519;-73
2021/04/14 07:26:59;;;;;;;16.77;15.67;;;8.60;91.40;;;;;;4953788;29;20488;-73
2021/04/14 07:29:36;;;;;;;17.60;16.27;;;8.50;91.70;;;;;;4953975;29;20460;-73
2021/04/14 07:32:12;;;;;;;17.50;16.30;;;8.30;91.90;;;;;;4956401;28;20460;-73
2021/04/14 07:34:50;;;;;;;17.67;16.20;;;8.60;92.30;;;;;;4969941;28;20869;-73
2021/04/14 07:37:23;;;;;;;17.60;16.40;;;9.80;90.50;;;;;;4972691;28;20932;-73
2021/04/14 07:39:59;;;;;;;18.27;16.83;;;11.10;86.60;;;;;;4972729;28;20799;-73
2021/04/14 07:42:34;;;;;;;19.07;17.20;;;12.10;82.20;;;;;;4973050;28;20447;-73
2021/04/14 07:45:13;;;;;;;18.70;17.50;;;12.90;77.50;;;;;;4979176;28;20448;-73
2021/04/14 07:47:43;;;;;;;18.27;17.03;;;13.30;75.80;;;;;;4963669;28;20566;-74
2021/04/14 07:50:13;;;;;;;16.03;14.93;;;13.70;72.50;;;;;;4960244;28;20571;-74
2021/04/14 07:52:39;;;;;;;17.30;16.20;;;13.70;72.40;;;;;;4953170;29;20519;-73
2021/04/14 07:55:20;;;;;;;17.07;15.77;;;13.70;72.50;;;;;;4952944;28;20476;-74
2021/04/14 07:57:47;;;;;;;18.50;17.40;;;13.50;71.00;;;;;;4953023;29;20480;-73
2021/04/14 08:00:18;;;;;;;16.57;15.53;;;13.80;70.70;;;;;;4952373;28;20457;-80
2021/04/14 08:02:45;;;;;;;14.30;13.50;;;14.10;67.90;;;;;;4952507;29;20444;-73
2021/04/14 08:05:23;;;;;;;15.17;14.30;;;14.10;65.50;;;;;;4953289;29;20369;-72
2021/04/14 08:07:49;;;;;;;13.10;12.50;;;14.60;64.80;;;;;;4970198;28;20534;-71
2021/04/14 08:10:19;;;;;;;13.90;13.17;;;14.10;63.50;;;;;;4972215;28;20471;-74
2021/04/14 08:12:59;;;;;;;13.97;13.27;;;14.90;63.30;;;;;;4972275;28;21159;-74
2021/04/14 08:15:32;;;;;;;15.60;14.60;;;15.30;61.10;;;;;;4972156;28;20490;-73
2021/04/14 08:18:15;;;;;;;14.83;14.03;;;15.50;61.10;;;;;;4972196;28;20458;-73
2021/04/14 08:20:43;;;;;;;13.63;12.63;;;15.60;61.00;;;;;;4972233;28;20482;-73
2021/04/14 08:23:13;;;;;;;14.27;13.33;;;16.20;58.60;;;;;;4972310;28;20460;-73
2021/04/14 08:25:45;;;;;;;14.83;13.90;;;16.40;56.80;;;;;;4972197;28;20462;-74
2021/04/14 08:28:11;;;;;;;14.10;13.33;;;16.30;56.10;;;;;;4972253;28;20479;-73
2021/04/14 08:30:38;;;;;;;13.60;12.83;;;16.50;56.40;;;;;;4972102;28;20487;-73
2021/04/14 08:33:08;;;;;;;13.87;12.97;;;16.90;54.70;;;;;;4971919;28;20547;-74
2021/04/14 08:35:38;;;;;;;12.77;12.03;;;16.50;55.20;;;;;;4971899;28;20946;-73
2021/04/14 08:38:09;;;;;;;15.40;14.40;;;16.60;55.70;;;;;;4962651;28;20858;-73
2021/04/14 08:40:49;;;;;;;15.10;14.30;;;16.80;54.70;;;;;;4962556;28;20965;-73
2021/04/14 08:43:23;;;;;;;14.13;12.93;;;16.90;54.70;;;;;;4952541;29;20448;-73
2021/04/14 08:45:51;;;;;;;13.70;13.00;;;17.00;54.50;;;;;;4952749;28;20826;-74
2021/04/14 08:48:23;;;;;;;13.53;12.83;;;16.50;54.00;;;;;;4952549;29;20495;-72
2021/04/14 08:50:51;;;;;;;14.83;13.90;;;16.80;53.70;;;;;;4952609;28;20452;-73
2021/04/14 08:53:24;;;;;;;15.73;14.43;;;17.30;53.50;;;;;;4952477;29;20903;-73
2021/04/14 08:55:50;;;;;;;15.00;14.00;;;17.70;52.70;;;;;;4952296;28;20510;-73
2021/04/14 08:58:19;;;;;;;14.13;13.43;;;17.50;52.20;;;;;;4952167;29;20484;-73
2021/04/14 09:00:45;;;;;;;13.30;12.50;;;16.90;52.30;;;;;;4952167;29;20461;-73
2021/04/14 09:03:17;;;;;;;12.87;12.07;;;16.20;52.80;;;;;;4952696;29;20461;-74
2021/04/14 09:05:45;;;;;;;13.30;12.70;;;16.60;52.70;;;;;;4952153;29;20986;-73
2021/04/14 09:08:17;;;;;;;13.67;12.67;;;17.00;52.10;;;;;;4952135;29;20543;-73
2021/04/14 09:10:51;;;;;;;13.37;12.67;;;15.70;53.40;;;;;;4952725;28;20482;-74
2021/04/14 09:13:28;;;;;;;11.53;10.87;;;15.80;53.70;;;;;;4963242;28;20785;-74
2021/04/14 09:15:56;;;;;;;13.27;12.37;;;16.10;53.90;;;;;;4966401;28;20542;-74
2021/04/14 09:18:29;;;;;;;14.03;13.43;;;15.50;54.90;;;;;;4975349;28;20840;-73
2021/04/14 09:21:12;;;;;;;12.00;11.30;;;15.70;54.30;;;;;;4975211;28;20459;-73
2021/04/14 09:23:41;;;;;;;12.37;11.77;;;16.20;53.30;;;;;;4975476;28;20461;-74
2021/04/14 09:26:22;;;;;;;13.43;12.60;;;16.90;51.90;;;;;;4974958;28;20447;-73
2021/04/14 09:28:50;;;;;;;13.00;12.30;;;17.90;51.40;;;;;;4975087;28;20949;-73
2021/04/14 09:31:39;;;;;;;13.70;13.10;;;18.20;50.90;;;;;;4974903;28;20451;-73
2021/04/14 09:34:10;;;;;;;13.33;12.40;;;18.70;50.10;;;;;;4975115;28;20486;-73
2021/04/14 09:36:44;;;;;;;13.60;12.77;;;19.00;49.00;;;;;;4975209;28;20444;-73
2021/04/14 09:39:17;;;;;;;13.43;12.70;;;19.60;46.90;;;;;;4974959;28;20542;-72
2021/04/14 09:41:44;;;;;;;12.90;12.30;;;19.00;44.70;;;;;;4959677;28;20829;-73
2021/04/14 09:44:31;;;;;;;13.43;12.73;;;19.20;45.40;;;;;;4955997;29;20459;-73
2021/04/14 09:47:10;;;;;;;12.07;11.57;;;17.90;45.00;;;;;;4955596;29;20592;-72
2021/04/14 09:49:38;;;;;;;12.93;12.23;;;16.50;47.30;;;;;;4955804;29;20822;-72
2021/04/14 09:52:19;;;;;;;14.10;13.20;;;16.00;48.30;;;;;;4955550;28;20460;-72
2021/04/14 09:54:47;;;;;;;12.27;11.47;;;14.90;50.40;;;;;;4955329;28;20467;-72
2021/04/14 09:57:17;;;;;;;11.73;11.17;;;14.50;52.00;;;;;;4955150;29;20602;-72
2021/04/14 09:59:44;;;;;;;13.30;12.50;;;15.80;49.70;;;;;;4955193;29;20457;-73
2021/04/14 10:02:14;;;;;;;11.30;10.80;;;17.00;47.20;;;;;;4953992;29;20461;-72
2021/04/14 10:04:41;;;;;;;11.37;10.80;;;17.30;45.10;;;;;;4955980;29;20453;-72
2021/04/14 10:07:14;;;;;;;12.83;12.13;;;16.10;44.60;;;;;;4955845;29;20546;-73
2021/04/14 10:09:43;;;;;;;12.30;11.70;;;15.00;47.60;;;;;;4955834;29;20876;-73
2021/04/14 10:12:11;;;;;;;10.63;9.90;;;14.30;48.20;;;;;;4955903;29;20855;-72
2021/04/14 10:14:45;;;;;;;11.90;11.03;;;13.40;52.40;;;;;;4955715;29;20511;-72
2021/04/14 10:17:12;;;;;;;11.93;11.30;;;12.70;54.40;;;;;;4955685;29;20551;-74
2021/04/14 10:19:38;;;;;;;12.30;11.60;;;12.10;56.00;;;;;;4959102;28;20455;-74
2021/04/14 10:22:08;;;;;;;10.53;9.93;;;11.70;58.00;;;;;;4963227;28;20451;-72
2021/04/14 10:24:34;;;;;;;14.67;13.10;;;11.20;59.90;;;;;;4963817;28;20976;-73
2021/04/14 10:27:01;;;;;;;11.47;10.67;;;10.90;62.70;;;;;;4963734;28;20480;-72
2021/04/14 10:29:30;;;;;;;10.50;9.90;;;9.90;65.80;;;;;;4960681;28;20500;-73
2021/04/14 10:31:59;;;;;;;10.27;9.77;;;8.50;71.60;;;;;;4955579;29;20453;-72
2021/04/14 10:34:29;;;;;;;10.93;10.20;;;7.70;78.80;;;;;;4955324;29;20465;-72
2021/04/14 10:36:57;;;;;;;10.47;10.00;;;7.50;84.80;;;;;;4955508;29;20451;-72
2021/04/14 10:39:30;;;;;;;11.37;10.57;;;7.00;88.90;;;;;;4955372;29;20487;-72
2021/04/14 10:41:57;;;;;;;11.97;10.97;;;6.90;90.80;;;;;;4970381;28;20455;-72
2021/04/14 10:44:27;;;;;;;10.37;9.87;;;7.00;90.60;;;;;;4973138;28;20450;-72
2021/04/14 10:47:01;;;;;;;10.53;9.83;;;7.00;88.20;;;;;;4974179;28;20483;-72
2021/04/14 10:49:29;;;;;;;9.90;9.30;;;7.10;89.40;;;;;;4974206;28;20451;-72
2021/04/14 10:52:01;;;;;;;9.23;8.93;;;7.10;88.20;;;;;;4974336;28;20448;-72
2021/04/14 10:54:30;;;;;;;9.70;9.30;;;7.50;87.60;;;;;;4973985;28;20521;-72
2021/04/14 10:57:02;;;;;;;11.17;10.63;;;7.60;84.40;;;;;;4973707;28;20479;-72
2021/04/14 10:59:29;;;;;;;10.77;10.27;;;7.70;82.70;;;;;;4973936;28;20545;-72
2021/04/14 11:01:56;;;;;;;9.80;9.30;;;7.60;82.10;;;;;;4973982;28;20558;-72
2021/04/14 11:04:31;;;;;;;8.93;8.53;;;7.50;81.80;;;;;;4973844;28;20476;-72
2021/04/14 11:07:01;;;;;;;8.50;8.10;;;7.50;83.40;;;;;;4973568;28;21019;-73
2021/04/14 11:09:30;;;;;;;9.80;9.40;;;8.10;84.60;;;;;;4973303;28;20818;-72
2021/04/14 11:11:58;;;;;;;10.63;10.03;;;9.20;81.70;;;;;;4973603;28;20826;-73
2021/04/14 11:14:25;;;;;;;10.60;10.17;;;10.50;77.20;;;;;;4973620;28;20439;-72
2021/04/14 11:16:52;;;;;;;11.33;10.60;;;11.70;71.70;;;;;;4973589;28;20820;-72
2021/04/14 11:19:20;;;;;;;10.07;9.47;;;12.40;64.70;;;;;;4973462;28;20612;-73
2021/04/14 11:21:59;;;;;;;10.70;10.30;;;13.20;58.70;;;;;;4973499;28;20504;-72
2021/04/14 11:24:25;;;;;;;10.10;9.60;;;12.90;55.90;;;;;;4973439;28;20463;-73
2021/04/14 11:26:53;;;;;;;9.50;9.20;;;12.10;55.00;;;;;;4973213;28;20491;-72
2021/04/14 11:29:22;;;;;;;9.80;9.30;;;12.00;54.50;;;;;;4973425;28;20794;-72
2021/04/14 11:31:49;;;;;;;10.37;9.87;;;11.80;53.40;;;;;;4973427;28;20498;-72
2021/04/14 11:34:19;;;;;;;11.00;10.60;;;11.90;54.50;;;;;;4973261;28;20459;-73
2021/04/14 11:36:59;;;;;;;11.73;11.13;;;12.20;54.00;;;;;;4973595;28;20448;-72
2021/04/14 11:39:27;;;;;;;11.03;10.47;;;12.10;52.50;;;;;;4973341;28;20470;-72
2021/04/14 11:42:06;;;;;;;10.87;10.37;;;12.50;52.20;;;;;;4973210;28;20458;-73
2021/04/14 11:44:42;;;;;;;11.60;10.80;;;12.50;52.50;;;;;;4973083;28;20459;-73
2021/04/14 11:47:21;;;;;;;11.10;10.40;;;12.30;53.50;;;;;;4973048;28;20487;-73
2021/04/14 11:49:48;;;;;;;9.97;9.57;;;11.90;53.30;;;;;;4973140;28;20470;-73
2021/04/14 11:52:21;;;;;;;9.27;8.77;;;11.60;54.10;;;;;;4972974;28;20515;-73
2021/04/14 11:54:48;;;;;;;10.80;10.10;;;11.50;54.10;;;;;;4972938;28;20458;-73
2021/04/14 11:57:23;;;;;;;10.67;10.10;;;11.40;55.20;;;;;;4972866;28;20542;-72
2021/04/14 12:00:03;;;;;;;10.70;10.00;;;11.40;55.30;;;;;;4972868;28;20459;-72
2021/04/14 12:02:30;;;;;;;10.57;9.97;;;11.70;55.60;;;;;;4972875;28;20474;-72
2021/04/14 12:04:58;;;;;;;10.17;9.67;;;11.60;55.80;;;;;;4972654;28;20443;-72
2021/04/14 12:07:25;;;;;;;10.50;9.90;;;11.60;56.00;;;;;;4972737;28;21040;-72
2021/04/14 12:09:51;;;;;;;10.13;9.63;;;11.60;56.20;;;;;;4972665;28;21012;-72
2021/04/14 12:12:18;;;;;;;11.20;10.50;;;12.00;56.50;;;;;;4972602;28;20459;-73
2021/04/14 12:14:45;;;;;;;11.70;11.00;;;11.90;55.20;;;;;;4972555;28;20464;-72
2021/04/14 12:17:12;;;;;;;11.30;10.80;;;11.80;55.60;;;;;;4972753;28;20448;-73
2021/04/14 12:19:38;;;;;;;11.00;10.40;;;12.20;55.30;;;;;;4972693;28;20459;-73
2021/04/14 12:22:04;;;;;;;10.90;9.93;;;12.30;55.60;;;;;;4970582;28;20869;-73
2021/04/14 12:24:32;;;;;;;10.27;9.87;;;12.50;55.90;;;;;;4970426;28;20460;-72
2021/04/14 12:26:58;;;;;;;10.90;10.50;;;12.30;55.10;;;;;;4972431;28;20479;-72
2021/04/14 12:29:25;;;;;;;10.63;10.23;;;12.40;55.20;;;;;;4972377;28;20485;-73
2021/04/14 12:31:51;;;;;;;9.50;9.20;;;12.60;55.30;;;;;;4972396;28;20460;-73
2021/04/14 12:34:17;;;;;;;12.47;11.40;;;13.00;55.40;;;;;;4972413;28;20973;-73
2021/04/14 12:36:43;;;;;;;11.43;10.83;;;12.80;58.30;;;;;;4972361;28;20447;-72
2021/04/14 12:39:10;;;;;;;13.10;12.40;;;12.60;60.10;;;;;;4972407;28;20456;-72
2021/04/14 12:41:38;;;;;;;11.20;10.70;;;12.00;60.40;;;;;;4972394;28;20451;-73
2021/04/14 12:44:05;;;;;;;11.13;10.43;;;11.90;61.60;;;;;;4972406;28;20448;-72
2021/04/14 12:46:32;;;;;;;10.80;10.30;;;11.70;60.70;;;;;;4971512;28;20463;-73
2021/04/14 12:48:59;;;;;;;10.47;9.97;;;11.50;61.10;;;;;;4972291;28;21009;-72
2021/04/14 12:51:29;;;;;;;10.10;9.57;;;11.80;62.50;;;;;;4972465;28;20455;-73
2021/04/14 12:54:05;;;;;;;10.20;9.60;;;12.00;62.20;;;;;;4972355;28;20462;-72
2021/04/14 12:56:34;;;;;;;11.27;10.70;;;11.70;62.90;;;;;;4971799;28;20475;-73
2021/04/14 12:59:06;;;;;;;11.27;10.77;;;11.90;62.80;;;;;;4972190;28;20451;-72
2021/04/14 13:01:33;;;;;;;11.27;10.50;;;11.90;64.10;;;;;;4972109;28;20464;-73
2021/04/14 13:04:04;;;;;;;10.40;9.80;;;11.90;65.50;;;;;;4971917;28;20466;-72
2021/04/14 13:06:40;;;;;;;11.10;10.60;;;11.80;66.00;;;;;;4972183;28;20466;-72
2021/04/14 13:09:08;;;;;;;10.63;10.03;;;11.50;68.70;;;;;;4972024;28;20822;-72
2021/04/14 13:11:39;;;;;;;10.73;10.30;;;11.40;70.10;;;;;;4971912;28;20455;-72
2021/04/14 13:14:06;;;;;;;10.97;10.27;;;11.40;71.10;;;;;;4972018;28;20458;-72
2021/04/14 13:16:39;;;;;;;10.60;10.10;;;11.70;71.20;;;;;;4971769;28;20490;-72
2021/04/14 13:19:05;;;;;;;11.37;10.77;;;11.80;71.50;;;;;;4971731;28;20992;-73